West Duluth, Minnesota
Current Conditions -  °F | °C
As of 2:15 AM on Sunday 21 Dec 2014 (Local Time) from KSUW Reporting Station
Overcast Overcast  
Wind Chill: 23°   Ceiling: 1400
Heat Index: 32°   Visibility: 10mi
Dew Point: 28°   Wind: 10mph
Humidity: 85%   Direction: 210°SSW
Pressure: 30.04"   Gusts: NA
Location:  46.7408°N, 92.1704°W
Report Text: KSUW 210815Z AUTO 21009KT 10SM OVC014 00/M02 A3004 RMK AO2 T10011023
Loading
Personal Weather Stations






























Interactive Weather Map New forecast layout! Learn more

10-Day Weather Forecast

Advertisements
Track Severe Weather on mobile